createdAt,value
2023-02-01T00:01:51.998Z,101965.81
2023-02-01T00:04:20.474Z,101954.28
2023-02-01T00:06:49.211Z,101943.34
2023-02-01T00:09:17.907Z,101939.06
2023-02-01T00:11:46.621Z,101946.25
2023-02-01T00:14:18.325Z,101940.84
2023-02-01T00:16:47.072Z,101941.06
2023-02-01T00:19:17.461Z,101938.38
2023-02-01T00:21:46.909Z,101960.34
2023-02-01T00:24:15.807Z,101933.38
2023-02-01T00:26:46.276Z,101941.13
2023-02-01T00:29:19.429Z,101941.00
2023-02-01T00:31:48.712Z,101945.34
2023-02-01T00:34:19.020Z,101942.75
2023-02-01T00:36:47.944Z,101945.28
2023-02-01T00:39:19.009Z,101946.06
2023-02-01T00:41:47.507Z,101931.28
2023-02-01T00:44:17.799Z,101956.41
2023-02-01T00:46:46.486Z,101943.34
2023-02-01T00:49:15.294Z,101933.66
2023-02-01T00:51:43.894Z,101951.81
2023-02-01T00:54:12.244Z,101947.56
2023-02-01T00:56:41.270Z,101941.53
2023-02-01T00:59:14.122Z,101948.38
2023-02-01T01:01:44.200Z,101954.28
2023-02-01T01:04:13.822Z,101938.56
2023-02-01T01:06:42.240Z,101948.16
2023-02-01T01:09:10.884Z,101943.59
2023-02-01T01:11:41.071Z,101921.88
2023-02-01T01:14:11.677Z,101926.38
2023-02-01T01:16:40.327Z,101937.03
2023-02-01T01:19:10.431Z,101936.19
2023-02-01T01:21:39.594Z,101938.72
2023-02-01T01:24:08.674Z,101941.34
2023-02-01T01:26:37.617Z,101945.06
2023-02-01T01:29:06.439Z,101938.91
2023-02-01T01:31:35.047Z,101933.94
2023-02-01T01:34:03.825Z,101952.34
2023-02-01T01:36:33.693Z,101933.94
2023-02-01T01:39:02.430Z,101926.88
2023-02-01T01:41:34.135Z,101937.31
2023-02-01T01:44:04.919Z,101938.13
2023-02-01T01:46:37.119Z,101938.78
2023-02-01T01:49:11.775Z,101941.31
2023-02-01T01:51:45.397Z,101933.50
2023-02-01T01:54:19.645Z,101938.88
2023-02-01T01:56:52.689Z,101939.66
2023-02-01T01:59:23.162Z,101933.88
2023-02-01T02:01:52.215Z,101933.13
2023-02-01T02:04:21.658Z,101933.19
2023-02-01T02:06:57.087Z,101917.63
2023-02-01T02:09:26.127Z,101929.78
2023-02-01T02:11:54.819Z,101927.28
2023-02-01T02:14:25.973Z,101931.81
2023-02-01T02:17:23.619Z,101939.72
2023-02-01T02:20:27.967Z,101926.69
2023-02-01T02:23:47.461Z,101939.69
2023-02-01T02:26:41.088Z,101941.38
2023-02-01T02:29:47.603Z,101918.81
2023-02-01T02:32:43.935Z,101929.19
2023-02-01T02:35:28.978Z,101923.13
2023-02-01T02:38:08.930Z,101934.44
2023-02-01T02:40:45.026Z,101934.31
2023-02-01T02:43:40.642Z,101940.38
2023-02-01T02:46:40.654Z,101932.34
2023-02-01T02:49:22.211Z,101935.81
2023-02-01T02:52:14.459Z,101933.97
2023-02-01T02:54:53.156Z,101925.44
2023-02-01T02:57:42.808Z,101915.78
2023-02-01T03:00:32.418Z,101924.41
2023-02-01T03:03:18.377Z,101905.13
2023-02-01T03:05:48.785Z,101891.38
2023-02-01T03:08:20.961Z,101896.59
2023-02-01T03:10:59.412Z,101902.78
2023-02-01T03:13:35.201Z,101911.38
2023-02-01T03:16:10.446Z,101897.28
2023-02-01T03:18:45.698Z,101898.22
2023-02-01T03:21:20.545Z,101906.91
2023-02-01T03:23:52.033Z,101895.72
2023-02-01T03:26:23.097Z,101916.78
2023-02-01T03:28:58.229Z,101914.75
2023-02-01T03:31:27.314Z,101911.38
2023-02-01T03:33:57.180Z,101917.47
2023-02-01T03:36:32.416Z,101918.22
2023-02-01T03:39:08.596Z,101906.81
2023-02-01T03:41:43.684Z,101924.31
2023-02-01T03:44:17.806Z,101915.63
2023-02-01T03:46:51.118Z,101904.28
2023-02-01T03:49:26.214Z,101904.31
2023-02-01T03:51:58.883Z,101905.16
2023-02-01T03:54:32.743Z,101881.63
2023-02-01T03:57:05.625Z,101879.94
2023-02-01T03:59:34.226Z,101881.69
2023-02-01T04:02:03.017Z,101871.97
2023-02-01T04:04:33.175Z,101873.50
2023-02-01T04:07:01.888Z,101865.50
2023-02-01T04:09:32.289Z,101880.00
2023-02-01T04:12:01.171Z,101869.16
2023-02-01T04:14:29.802Z,101848.13
2023-02-01T04:16:58.363Z,101878.50
2023-02-01T04:19:29.025Z,101853.97
2023-02-01T04:21:57.693Z,101855.75
2023-02-01T04:24:27.300Z,101844.31
2023-02-01T04:26:57.494Z,101850.44
2023-02-01T04:29:26.064Z,101854.75
2023-02-01T04:31:54.713Z,101848.59
2023-02-01T04:34:26.114Z,101854.81
2023-02-01T04:36:55.669Z,101841.78
2023-02-01T04:39:24.237Z,101842.50
2023-02-01T04:41:53.411Z,101843.31
2023-02-01T04:44:23.199Z,101850.00
2023-02-01T04:46:57.673Z,101832.66
2023-02-01T04:49:28.010Z,101838.84
2023-02-01T04:51:56.634Z,101852.97
2023-02-01T04:54:26.529Z,101834.50
2023-02-01T04:56:55.186Z,101837.25
2023-02-01T04:59:26.352Z,101831.81
2023-02-01T05:01:55.071Z,101841.53
2023-02-01T05:04:23.697Z,101836.22
2023-02-01T05:06:52.375Z,101842.56
2023-02-01T05:09:22.467Z,101835.63
2023-02-01T05:12:08.338Z,101836.34
2023-02-01T05:14:38.471Z,101840.09
2023-02-01T05:17:07.077Z,101838.31
2023-02-01T05:19:36.836Z,101844.22
2023-02-01T05:22:05.874Z,101837.88
2023-02-01T05:24:35.566Z,101845.75
2023-02-01T05:27:03.948Z,101841.47
2023-02-01T05:29:32.633Z,101845.66
2023-02-01T05:32:19.303Z,101842.88
2023-02-01T05:34:50.382Z,101855.25
2023-02-01T05:37:20.653Z,101841.16
2023-02-01T05:39:49.031Z,101849.88
2023-02-01T05:42:17.759Z,101845.78
2023-02-01T05:44:46.737Z,101834.75
2023-02-01T05:47:16.787Z,101846.19
2023-02-01T05:49:45.507Z,101843.84
2023-02-01T05:52:20.438Z,101829.00
2023-02-01T05:54:49.305Z,101836.78
2023-02-01T05:57:21.000Z,101840.19
2023-02-01T05:59:50.626Z,101824.47
2023-02-01T06:02:20.779Z,101828.66
2023-02-01T06:04:49.781Z,101868.19
2023-02-01T06:07:18.591Z,101846.25
2023-02-01T06:09:47.145Z,101839.22
2023-02-01T06:12:16.142Z,101843.56
2023-02-01T06:14:45.051Z,101841.00
2023-02-01T06:17:14.370Z,101843.47
2023-02-01T06:19:46.529Z,101834.50
2023-02-01T06:22:15.186Z,101849.31
2023-02-01T06:24:43.442Z,101858.22
2023-02-01T06:27:12.428Z,101861.66
2023-02-01T06:29:40.957Z,101857.25
2023-02-01T06:32:09.948Z,101862.44
2023-02-01T06:34:38.917Z,101842.31
2023-02-01T06:37:09.360Z,101850.19
2023-02-01T06:39:37.914Z,101845.31
2023-02-01T06:42:07.166Z,101852.19
2023-02-01T06:44:36.631Z,101874.78
2023-02-01T06:57:12.497Z,101875.19
2023-02-01T07:02:43.825Z,101875.09
2023-02-01T07:35:41.207Z,101866.41
2023-02-01T07:38:17.171Z,101871.66
2023-02-01T07:44:44.013Z,101859.47
2023-02-01T07:54:21.998Z,101866.19
2023-02-01T08:03:29.501Z,101887.91
2023-02-01T08:08:40.268Z,101912.38
2023-02-01T08:26:16.845Z,101922.38
2023-02-01T08:29:02.853Z,101925.06
2023-02-01T08:31:31.732Z,101926.59
2023-02-01T08:41:13.647Z,101917.84
2023-02-01T08:47:39.792Z,101919.75
2023-02-01T08:50:33.553Z,101932.66
2023-02-01T08:53:42.869Z,101935.22
2023-02-01T08:56:37.066Z,101931.53
2023-02-01T08:59:06.378Z,101936.59
2023-02-01T09:01:35.114Z,101943.56
2023-02-01T09:04:05.220Z,101960.06
2023-02-01T09:06:33.737Z,101955.38
2023-02-01T09:09:02.007Z,101958.75
2023-02-01T09:11:30.773Z,101938.31
2023-02-01T09:13:59.158Z,101954.94
2023-02-01T12:32:20.282Z,101934.31
2023-02-01T12:52:47.068Z,101904.22
2023-02-01T12:55:24.005Z,101910.47
2023-02-01T12:57:58.398Z,101896.28
2023-02-01T13:00:34.149Z,101899.94
2023-02-01T13:03:16.178Z,101889.84
2023-02-01T13:05:53.283Z,101886.81
2023-02-01T13:08:28.106Z,101904.72
2023-02-01T13:11:03.111Z,101903.63
2023-02-01T13:13:40.364Z,101897.97
2023-02-01T13:16:19.063Z,101899.50
2023-02-01T13:18:54.516Z,101916.75
2023-02-01T13:21:30.764Z,101907.91
2023-02-01T13:24:01.099Z,101903.47
2023-02-01T13:26:30.278Z,101922.34
2023-02-01T13:29:04.577Z,101912.72
2023-02-01T13:31:50.941Z,101901.94
2023-02-01T13:34:54.058Z,101923.63
2023-02-01T13:37:39.975Z,101909.44
2023-02-01T13:40:20.906Z,101897.63
2023-02-01T13:42:54.474Z,101924.69
2023-02-01T13:45:27.742Z,101897.97
2023-02-01T13:48:03.393Z,101925.53
2023-02-01T13:50:39.797Z,101933.47
2023-02-01T13:53:22.040Z,101911.66
2023-02-01T13:55:59.880Z,101884.41
2023-02-01T13:58:38.727Z,101895.31
2023-02-01T14:01:38.670Z,101885.75
2023-02-01T14:04:09.428Z,101895.56
2023-02-01T14:06:44.635Z,101882.47
2023-02-01T14:09:21.102Z,101913.28
2023-02-01T14:11:58.737Z,101896.66
2023-02-01T14:14:48.848Z,101915.13
2023-02-01T14:17:39.006Z,101907.13
2023-02-01T14:20:54.465Z,101882.53
2023-02-01T14:23:26.895Z,101898.44
2023-02-01T14:26:24.128Z,101915.97
2023-02-01T14:28:57.093Z,101904.94
2023-02-01T14:31:50.283Z,101915.47
2023-02-01T14:34:27.577Z,101903.84
2023-02-01T14:37:07.809Z,101891.34
2023-02-01T14:39:53.425Z,101899.94
2023-02-01T14:42:28.520Z,101890.69
2023-02-01T14:45:18.713Z,101886.31
2023-02-01T14:47:49.114Z,101882.66
2023-02-01T14:50:33.507Z,101887.84
2023-02-01T14:53:16.039Z,101869.63
2023-02-01T14:55:50.213Z,101864.88
2023-02-01T14:58:38.844Z,101896.28
2023-02-01T15:01:20.903Z,101860.25
2023-02-01T15:04:01.429Z,101911.00
2023-02-01T15:06:34.342Z,101891.59
2023-02-01T15:09:10.170Z,101877.84
2023-02-01T15:11:57.906Z,101897.25
2023-02-01T15:14:29.945Z,101882.22
2023-02-01T15:16:58.488Z,101872.16
2023-02-01T15:19:30.013Z,101875.66
2023-02-01T15:22:01.415Z,101894.41
2023-02-01T15:24:31.946Z,101887.53
2023-02-01T15:27:07.724Z,101875.09
2023-02-01T15:29:38.954Z,101888.41
2023-02-01T15:32:09.850Z,101874.31
2023-02-01T15:34:50.091Z,101880.94
2023-02-01T15:37:21.554Z,101872.00
2023-02-01T15:40:25.758Z,101892.69
2023-02-01T15:42:56.941Z,101893.78
2023-02-01T15:45:29.885Z,101883.56
2023-02-01T15:48:00.577Z,101883.97
2023-02-01T15:50:32.678Z,101911.28
2023-02-01T15:53:01.997Z,101897.53
2023-02-01T15:55:40.893Z,101916.19
2023-02-01T15:58:17.382Z,101911.06
2023-02-01T16:00:51.464Z,101906.72
2023-02-01T16:03:31.248Z,101918.34
2023-02-01T16:06:02.172Z,101911.38
2023-02-01T16:08:35.994Z,101915.88
2023-02-01T16:11:29.368Z,101924.47
2023-02-01T16:13:57.991Z,101918.25
2023-02-01T16:16:29.798Z,101909.59
2023-02-01T16:18:58.806Z,101908.81
2023-02-01T16:21:27.532Z,101914.16
2023-02-01T16:23:56.107Z,101936.19
2023-02-01T16:26:25.682Z,101911.69
2023-02-01T16:28:54.527Z,101918.75
2023-02-01T16:31:30.305Z,101915.19
2023-02-01T16:34:00.431Z,101900.53
2023-02-01T16:36:29.992Z,101905.97
2023-02-01T16:38:58.649Z,101905.28
2023-02-01T16:41:29.281Z,101903.50
2023-02-01T16:43:58.255Z,101905.38
2023-02-01T16:46:32.018Z,101907.22
2023-02-01T16:49:03.111Z,101912.81
2023-02-01T16:51:34.584Z,101930.47
2023-02-01T16:54:03.775Z,101924.50
2023-02-01T16:56:34.941Z,101922.78
2023-02-01T16:59:04.456Z,101929.22
2023-02-01T17:01:34.719Z,101919.75
2023-02-01T17:04:03.856Z,101919.84
2023-02-01T17:06:33.846Z,101941.84
2023-02-01T17:09:04.580Z,101935.78
2023-02-01T17:11:33.611Z,101950.75
2023-02-01T17:14:12.468Z,101938.44
2023-02-01T17:16:43.802Z,101942.75
2023-02-01T17:19:17.135Z,101944.63
2023-02-01T17:21:49.482Z,101947.34
2023-02-01T17:24:20.245Z,101948.19
2023-02-01T17:26:50.166Z,101946.56
2023-02-01T17:29:20.081Z,101951.06
2023-02-01T17:31:52.785Z,101950.13
2023-02-01T17:34:21.145Z,101962.69
2023-02-01T17:36:50.675Z,101961.75
2023-02-01T17:39:33.260Z,101957.63
2023-02-01T17:42:02.847Z,101959.09
2023-02-01T17:44:32.317Z,101976.78
2023-02-01T17:47:02.408Z,101965.41
2023-02-01T17:49:31.116Z,101996.13
2023-02-01T17:52:00.208Z,101996.28
2023-02-01T17:54:28.871Z,101984.91
2023-02-01T17:57:00.417Z,101983.97
2023-02-01T17:59:29.102Z,101978.84
2023-02-01T18:02:01.410Z,101977.06
2023-02-01T18:04:31.947Z,101980.75
2023-02-01T18:07:00.557Z,101972.22
2023-02-01T18:09:29.244Z,101996.88
2023-02-01T18:11:58.033Z,101983.84
2023-02-01T18:14:26.642Z,101992.88
2023-02-01T18:16:55.559Z,101986.91
2023-02-01T18:19:24.269Z,101986.25
2023-02-01T18:21:54.415Z,101988.94
2023-02-01T18:24:26.638Z,101995.09
2023-02-01T18:26:57.418Z,101988.94
2023-02-01T18:29:26.412Z,101994.16
2023-02-01T18:31:57.299Z,102020.28
2023-02-01T18:34:27.404Z,101999.22
2023-02-01T18:36:57.556Z,102009.75
2023-02-01T18:39:26.174Z,102006.34
2023-02-01T18:41:54.899Z,102010.81
2023-02-01T18:44:24.699Z,102017.81
2023-02-01T18:46:53.465Z,102012.53
2023-02-01T18:49:22.082Z,102013.53
2023-02-01T18:51:52.532Z,102010.81
2023-02-01T18:54:24.988Z,102020.50
2023-02-01T18:56:54.253Z,102016.97
2023-02-01T18:59:22.878Z,101992.16
2023-02-01T19:01:51.466Z,102000.28
2023-02-01T19:04:22.019Z,102006.59
2023-02-01T19:06:54.556Z,102014.41
2023-02-01T19:09:24.562Z,102018.88
2023-02-01T19:11:53.211Z,102027.78
2023-02-01T19:14:21.870Z,102026.94
2023-02-01T19:17:04.096Z,102027.94
2023-02-01T19:19:32.722Z,102026.22
2023-02-01T19:22:01.225Z,102029.06
2023-02-01T19:24:31.610Z,102029.16
2023-02-01T19:27:00.227Z,102028.50
2023-02-01T19:29:30.053Z,102038.94
2023-02-01T19:31:58.875Z,102026.00
2023-02-01T19:34:27.468Z,102026.94
2023-02-01T19:36:56.346Z,102029.69
2023-02-01T19:39:25.318Z,102039.66
2023-02-01T19:41:55.635Z,102052.13
2023-02-01T19:44:24.321Z,102053.06
2023-02-01T19:46:52.890Z,102056.63
2023-02-01T19:49:21.574Z,102060.38
2023-02-01T19:51:50.290Z,102055.16
2023-02-01T19:54:18.796Z,102059.19
2023-02-01T19:56:49.284Z,102064.84
2023-02-01T19:59:22.889Z,102076.41
2023-02-01T20:01:51.975Z,102065.34
2023-02-01T20:04:20.897Z,102051.63
2023-02-01T20:06:50.561Z,102044.81
2023-02-01T20:09:21.174Z,102043.19
2023-02-01T20:11:53.973Z,102033.81
2023-02-01T20:14:26.791Z,102021.88
2023-02-01T20:16:55.615Z,102028.13
2023-02-01T20:19:24.727Z,102028.97
2023-02-01T20:21:53.161Z,102028.19
2023-02-01T20:24:21.641Z,102030.81
2023-02-01T20:26:51.306Z,102038.97
2023-02-01T20:29:20.055Z,102035.41
2023-02-01T20:31:50.222Z,102031.13
2023-02-01T20:34:18.718Z,102039.81
2023-02-01T20:36:47.589Z,102042.47
2023-02-01T20:39:16.079Z,102031.84
2023-02-01T20:41:45.299Z,102039.81
2023-02-01T20:44:15.823Z,102046.78
2023-02-01T20:46:44.769Z,102044.22
2023-02-01T20:49:15.103Z,102045.91
2023-02-01T20:51:43.854Z,102042.56
2023-02-01T20:54:12.357Z,102029.41
2023-02-01T20:56:40.977Z,102031.13
2023-02-01T20:59:12.722Z,102033.56
2023-02-01T21:01:53.107Z,102037.03
2023-02-01T21:04:29.682Z,102030.88
2023-02-01T21:06:59.511Z,102025.50
2023-02-01T21:09:30.334Z,102031.75
2023-02-01T21:11:59.713Z,102035.16
2023-02-01T21:14:29.497Z,102044.31
2023-02-01T21:16:57.933Z,102036.81
2023-02-01T21:19:28.220Z,102047.78
2023-02-01T21:21:56.893Z,102042.50
2023-02-01T21:24:25.485Z,102049.25
2023-02-01T21:26:54.268Z,102045.81
2023-02-01T21:29:22.935Z,102039.50
2023-02-01T21:31:51.581Z,102035.19
2023-02-01T21:34:20.482Z,102034.13
2023-02-01T21:36:51.740Z,102051.53
2023-02-01T21:39:20.127Z,102042.69
2023-02-01T21:42:06.011Z,102040.81
2023-02-01T21:44:34.663Z,102027.34
2023-02-01T21:47:03.793Z,102030.78
2023-02-01T21:49:32.639Z,102026.28
2023-02-01T21:52:02.563Z,102027.09
2023-02-01T21:54:31.148Z,102029.66
2023-02-01T21:56:59.646Z,102025.88
2023-02-01T21:59:28.089Z,102023.47
2023-02-01T22:01:56.819Z,102012.88
2023-02-01T22:04:25.491Z,102018.06
2023-02-01T22:06:54.164Z,102011.81
2023-02-01T22:09:25.972Z,102005.66
2023-02-01T22:11:56.785Z,102005.50
2023-02-01T22:14:25.626Z,102022.13
2023-02-01T22:16:54.216Z,102016.09
2023-02-01T22:19:23.770Z,102017.50
2023-02-01T22:21:52.274Z,102022.00
2023-02-01T22:24:22.346Z,102027.34
2023-02-01T22:26:52.707Z,102025.59
2023-02-01T22:29:28.689Z,102008.13
2023-02-01T22:31:57.744Z,102022.34
2023-02-01T22:34:27.502Z,102005.66
2023-02-01T22:36:56.347Z,102001.84
2023-02-01T22:39:26.052Z,102006.44
2023-02-01T22:41:56.045Z,102024.91
2023-02-01T22:44:27.940Z,102007.63
2023-02-01T22:46:56.551Z,102009.22
2023-02-01T22:49:27.037Z,102016.25
2023-02-01T22:51:55.428Z,102013.47
2023-02-01T22:54:23.916Z,102012.56
2023-02-01T22:56:52.672Z,102010.63
2023-02-01T22:59:22.657Z,102031.44
2023-02-01T23:01:53.503Z,102038.31
2023-02-01T23:04:23.064Z,102031.88
2023-02-01T23:06:52.980Z,102031.69
2023-02-01T23:09:25.604Z,102033.59
2023-02-01T23:11:56.226Z,102032.81
2023-02-01T23:14:26.237Z,102027.38
2023-02-01T23:16:54.717Z,102024.75
2023-02-01T23:19:23.488Z,102026.34
2023-02-01T23:21:53.187Z,102025.41
2023-02-01T23:24:22.053Z,102033.97
2023-02-01T23:26:50.933Z,102027.06
2023-02-01T23:29:20.433Z,102030.53
2023-02-01T23:31:50.613Z,102019.16
2023-02-01T23:34:19.347Z,102026.84
2023-02-01T23:36:47.903Z,102020.88
2023-02-01T23:39:16.474Z,102016.53
2023-02-01T23:41:45.057Z,102017.50
2023-02-01T23:44:13.560Z,102027.84
2023-02-01T23:46:47.537Z,102014.53
2023-02-01T23:49:18.973Z,102008.50
2023-02-01T23:51:51.745Z,102015.59
2023-02-01T23:54:23.111Z,102010.28
2023-02-01T23:56:51.744Z,102015.41
2023-02-01T23:59:22.204Z,102007.69
